sensor_id;sensor_type;location;lat;lon;timestamp;P1;durP1;ratioP1;P2;durP2;ratioP2
41865;SDS011;27539;43.222;27.558;2022-12-20T00:01:39;1.63;;;1.53;;
41865;SDS011;27539;43.222;27.558;2022-12-20T00:04:05;0.83;;;0.77;;
41865;SDS011;27539;43.222;27.558;2022-12-20T00:06:32;3.70;;;1.57;;
41865;SDS011;27539;43.222;27.558;2022-12-20T00:09:00;1.55;;;1.45;;
41865;SDS011;27539;43.222;27.558;2022-12-20T00:11:27;6.13;;;2.55;;
41865;SDS011;27539;43.222;27.558;2022-12-20T00:13:53;1.13;;;1.13;;
41865;SDS011;27539;43.222;27.558;2022-12-20T00:16:20;2.10;;;1.67;;
41865;SDS011;27539;43.222;27.558;2022-12-20T00:18:52;1.15;;;1.05;;
41865;SDS011;27539;43.222;27.558;2022-12-20T00:21:19;1.25;;;1.25;;
41865;SDS011;27539;43.222;27.558;2022-12-20T00:23:44;0.87;;;0.87;;
41865;SDS011;27539;43.222;27.558;2022-12-20T00:26:11;7.87;;;2.27;;
41865;SDS011;27539;43.222;27.558;2022-12-20T00:28:39;3.53;;;1.65;;
41865;SDS011;27539;43.222;27.558;2022-12-20T00:33:31;5.35;;;1.55;;
41865;SDS011;27539;43.222;27.558;2022-12-20T00:38:24;11.98;;;1.30;;
41865;SDS011;27539;43.222;27.558;2022-12-20T00:41:00;2.92;;;2.65;;
41865;SDS011;27539;43.222;27.558;2022-12-20T00:43:28;0.50;;;0.50;;
41865;SDS011;27539;43.222;27.558;2022-12-20T00:45:54;1.02;;;1.02;;
41865;SDS011;27539;43.222;27.558;2022-12-20T00:48:20;2.10;;;1.43;;
41865;SDS011;27539;43.222;27.558;2022-12-20T00:50:47;7.75;;;2.20;;
41865;SDS011;27539;43.222;27.558;2022-12-20T00:53:12;1.10;;;1.03;;
41865;SDS011;27539;43.222;27.558;2022-12-20T00:55:41;1.93;;;1.17;;
41865;SDS011;27539;43.222;27.558;2022-12-20T00:58:10;2.28;;;1.98;;
41865;SDS011;27539;43.222;27.558;2022-12-20T01:00:38;3.10;;;1.73;;
41865;SDS011;27539;43.222;27.558;2022-12-20T01:03:04;5.38;;;1.35;;
41865;SDS011;27539;43.222;27.558;2022-12-20T01:05:30;1.20;;;1.17;;
41865;SDS011;27539;43.222;27.558;2022-12-20T01:07:56;4.60;;;2.93;;
41865;SDS011;27539;43.222;27.558;2022-12-20T01:10:21;1.40;;;1.13;;
41865;SDS011;27539;43.222;27.558;2022-12-20T01:12:47;1.47;;;1.37;;
41865;SDS011;27539;43.222;27.558;2022-12-20T01:15:12;4.43;;;3.00;;
41865;SDS011;27539;43.222;27.558;2022-12-20T01:17:38;2.30;;;2.20;;
41865;SDS011;27539;43.222;27.558;2022-12-20T01:20:04;1.83;;;1.50;;
41865;SDS011;27539;43.222;27.558;2022-12-20T01:22:30;1.40;;;1.30;;
41865;SDS011;27539;43.222;27.558;2022-12-20T01:24:55;0.50;;;0.50;;
41865;SDS011;27539;43.222;27.558;2022-12-20T01:27:21;1.23;;;1.20;;
41865;SDS011;27539;43.222;27.558;2022-12-20T01:29:47;1.17;;;1.13;;
41865;SDS011;27539;43.222;27.558;2022-12-20T01:32:12;1.70;;;1.60;;
41865;SDS011;27539;43.222;27.558;2022-12-20T01:34:38;5.77;;;2.37;;
41865;SDS011;27539;43.222;27.558;2022-12-20T01:37:03;1.47;;;1.40;;
41865;SDS011;27539;43.222;27.558;2022-12-20T01:39:29;1.73;;;1.63;;
41865;SDS011;27539;43.222;27.558;2022-12-20T01:41:54;5.17;;;1.13;;
41865;SDS011;27539;43.222;27.558;2022-12-20T01:46:46;1.63;;;1.43;;
41865;SDS011;27539;43.222;27.558;2022-12-20T01:49:29;2.78;;;1.70;;
41865;SDS011;27539;43.222;27.558;2022-12-20T01:51:59;2.25;;;1.67;;
41865;SDS011;27539;43.222;27.558;2022-12-20T01:54:30;1.85;;;1.52;;
41865;SDS011;27539;43.222;27.558;2022-12-20T01:57:05;0.40;;;0.40;;
41865;SDS011;27539;43.222;27.558;2022-12-20T01:59:35;15.30;;;3.38;;
41865;SDS011;27539;43.222;27.558;2022-12-20T02:02:04;6.50;;;2.42;;
41865;SDS011;27539;43.222;27.558;2022-12-20T02:04:33;1.15;;;1.05;;
41865;SDS011;27539;43.222;27.558;2022-12-20T02:06:59;7.13;;;3.07;;
41865;SDS011;27539;43.222;27.558;2022-12-20T02:09:26;7.60;;;2.03;;
41865;SDS011;27539;43.222;27.558;2022-12-20T02:17:52;2.95;;;1.13;;
41865;SDS011;27539;43.222;27.558;2022-12-20T02:34:31;1.35;;;1.20;;
41865;SDS011;27539;43.222;27.558;2022-12-20T02:36:59;1.92;;;1.77;;
41865;SDS011;27539;43.222;27.558;2022-12-20T02:39:26;10.87;;;2.13;;
41865;SDS011;27539;43.222;27.558;2022-12-20T02:41:54;6.82;;;1.98;;
41865;SDS011;27539;43.222;27.558;2022-12-20T02:44:25;10.63;;;2.05;;
41865;SDS011;27539;43.222;27.558;2022-12-20T02:47:13;2.40;;;2.25;;
41865;SDS011;27539;43.222;27.558;2022-12-20T02:49:45;2.38;;;2.17;;
41865;SDS011;27539;43.222;27.558;2022-12-20T02:52:13;1.55;;;1.45;;
41865;SDS011;27539;43.222;27.558;2022-12-20T02:54:39;4.15;;;2.45;;
41865;SDS011;27539;43.222;27.558;2022-12-20T02:57:10;2.63;;;2.42;;
41865;SDS011;27539;43.222;27.558;2022-12-20T02:59:43;3.88;;;1.92;;
41865;SDS011;27539;43.222;27.558;2022-12-20T03:02:14;2.45;;;2.25;;
41865;SDS011;27539;43.222;27.558;2022-12-20T03:04:40;4.28;;;3.85;;
41865;SDS011;27539;43.222;27.558;2022-12-20T03:07:07;10.13;;;3.85;;
41865;SDS011;27539;43.222;27.558;2022-12-20T03:09:39;1.90;;;1.70;;
41865;SDS011;27539;43.222;27.558;2022-12-20T03:12:06;0.80;;;0.80;;
41865;SDS011;27539;43.222;27.558;2022-12-20T03:14:33;0.68;;;0.68;;
41865;SDS011;27539;43.222;27.558;2022-12-20T03:16:58;2.43;;;2.23;;
41865;SDS011;27539;43.222;27.558;2022-12-20T03:19:24;1.47;;;1.37;;
41865;SDS011;27539;43.222;27.558;2022-12-20T03:21:50;6.03;;;1.47;;
41865;SDS011;27539;43.222;27.558;2022-12-20T03:24:15;4.35;;;2.30;;
41865;SDS011;27539;43.222;27.558;2022-12-20T03:26:42;1.40;;;1.30;;
41865;SDS011;27539;43.222;27.558;2022-12-20T03:29:07;3.50;;;1.90;;
41865;SDS011;27539;43.222;27.558;2022-12-20T03:31:33;1.40;;;1.30;;
41865;SDS011;27539;43.222;27.558;2022-12-20T03:33:59;1.08;;;1.00;;
41865;SDS011;27539;43.222;27.558;2022-12-20T03:36:25;4.30;;;2.47;;
41865;SDS011;27539;43.222;27.558;2022-12-20T03:38:51;6.63;;;2.33;;
41865;SDS011;27539;43.222;27.558;2022-12-20T03:43:43;0.98;;;0.98;;
41865;SDS011;27539;43.222;27.558;2022-12-20T03:46:08;1.47;;;1.40;;
41865;SDS011;27539;43.222;27.558;2022-12-20T03:48:34;0.80;;;0.80;;
41865;SDS011;27539;43.222;27.558;2022-12-20T03:50:59;0.83;;;0.83;;
41865;SDS011;27539;43.222;27.558;2022-12-20T03:53:25;1.90;;;1.17;;
41865;SDS011;27539;43.222;27.558;2022-12-20T03:55:50;7.07;;;2.07;;
41865;SDS011;27539;43.222;27.558;2022-12-20T03:58:15;4.90;;;2.67;;
41865;SDS011;27539;43.222;27.558;2022-12-20T04:00:41;0.40;;;0.40;;
41865;SDS011;27539;43.222;27.558;2022-12-20T04:03:06;2.80;;;2.60;;
41865;SDS011;27539;43.222;27.558;2022-12-20T04:05:32;6.30;;;1.97;;
41865;SDS011;27539;43.222;27.558;2022-12-20T04:07:57;1.27;;;1.20;;
41865;SDS011;27539;43.222;27.558;2022-12-20T04:10:23;0.87;;;0.83;;
41865;SDS011;27539;43.222;27.558;2022-12-20T04:12:48;1.43;;;1.40;;
41865;SDS011;27539;43.222;27.558;2022-12-20T04:15:13;2.43;;;1.23;;
41865;SDS011;27539;43.222;27.558;2022-12-20T04:17:39;8.07;;;1.17;;
41865;SDS011;27539;43.222;27.558;2022-12-20T04:20:05;10.90;;;2.57;;
41865;SDS011;27539;43.222;27.558;2022-12-20T04:22:51;3.45;;;1.70;;
41865;SDS011;27539;43.222;27.558;2022-12-20T04:25:18;3.22;;;2.28;;
41865;SDS011;27539;43.222;27.558;2022-12-20T04:27:45;2.65;;;2.42;;
41865;SDS011;27539;43.222;27.558;2022-12-20T04:30:10;3.80;;;1.40;;
41865;SDS011;27539;43.222;27.558;2022-12-20T04:32:36;3.80;;;2.15;;
41865;SDS011;27539;43.222;27.558;2022-12-20T04:35:02;3.93;;;1.23;;
41865;SDS011;27539;43.222;27.558;2022-12-20T04:37:28;1.52;;;1.42;;
41865;SDS011;27539;43.222;27.558;2022-12-20T04:39:55;3.95;;;1.35;;
41865;SDS011;27539;43.222;27.558;2022-12-20T04:42:22;0.98;;;0.98;;
41865;SDS011;27539;43.222;27.558;2022-12-20T04:44:48;1.48;;;1.42;;
41865;SDS011;27539;43.222;27.558;2022-12-20T04:47:13;2.00;;;1.80;;
41865;SDS011;27539;43.222;27.558;2022-12-20T04:49:39;2.53;;;2.20;;
41865;SDS011;27539;43.222;27.558;2022-12-20T04:52:04;0.83;;;0.83;;
41865;SDS011;27539;43.222;27.558;2022-12-20T04:54:48;1.33;;;1.33;;
41865;SDS011;27539;43.222;27.558;2022-12-20T04:57:13;1.20;;;1.20;;
41865;SDS011;27539;43.222;27.558;2022-12-20T04:59:39;1.10;;;1.10;;
41865;SDS011;27539;43.222;27.558;2022-12-20T05:02:04;1.63;;;1.53;;
41865;SDS011;27539;43.222;27.558;2022-12-20T05:04:30;4.73;;;2.07;;
41865;SDS011;27539;43.222;27.558;2022-12-20T05:06:55;3.77;;;3.40;;
41865;SDS011;27539;43.222;27.558;2022-12-20T05:09:21;2.00;;;1.83;;
41865;SDS011;27539;43.222;27.558;2022-12-20T05:11:46;16.77;;;2.53;;
41865;SDS011;27539;43.222;27.558;2022-12-20T05:14:12;0.87;;;0.87;;
41865;SDS011;27539;43.222;27.558;2022-12-20T05:16:37;9.67;;;2.27;;
41865;SDS011;27539;43.222;27.558;2022-12-20T05:19:03;1.33;;;1.23;;
41865;SDS011;27539;43.222;27.558;2022-12-20T05:21:28;1.07;;;1.03;;
41865;SDS011;27539;43.222;27.558;2022-12-20T05:24:13;13.30;;;2.72;;
41865;SDS011;27539;43.222;27.558;2022-12-20T05:26:57;3.25;;;1.83;;
41865;SDS011;27539;43.222;27.558;2022-12-20T05:29:22;2.27;;;2.07;;
41865;SDS011;27539;43.222;27.558;2022-12-20T05:31:48;7.47;;;3.33;;
41865;SDS011;27539;43.222;27.558;2022-12-20T05:34:13;4.50;;;1.67;;
41865;SDS011;27539;43.222;27.558;2022-12-20T05:36:39;6.17;;;2.43;;
41865;SDS011;27539;43.222;27.558;2022-12-20T05:39:04;2.43;;;2.27;;
41865;SDS011;27539;43.222;27.558;2022-12-20T05:41:30;2.13;;;2.03;;
41865;SDS011;27539;43.222;27.558;2022-12-20T05:43:56;1.43;;;1.33;;
41865;SDS011;27539;43.222;27.558;2022-12-20T05:46:21;5.60;;;2.77;;
41865;SDS011;27539;43.222;27.558;2022-12-20T05:48:47;6.87;;;1.80;;
41865;SDS011;27539;43.222;27.558;2022-12-20T05:51:12;1.10;;;1.10;;
41865;SDS011;27539;43.222;27.558;2022-12-20T05:53:38;16.90;;;1.60;;
41865;SDS011;27539;43.222;27.558;2022-12-20T05:56:03;5.07;;;3.10;;
41865;SDS011;27539;43.222;27.558;2022-12-20T05:58:29;1.97;;;1.87;;
41865;SDS011;27539;43.222;27.558;2022-12-20T06:00:54;3.50;;;1.53;;
41865;SDS011;27539;43.222;27.558;2022-12-20T06:03:20;0.97;;;0.97;;
41865;SDS011;27539;43.222;27.558;2022-12-20T06:05:46;9.90;;;2.37;;
41865;SDS011;27539;43.222;27.558;2022-12-20T06:08:12;3.00;;;1.65;;
41865;SDS011;27539;43.222;27.558;2022-12-20T06:10:38;7.28;;;5.68;;
41865;SDS011;27539;43.222;27.558;2022-12-20T06:13:06;5.35;;;1.77;;
41865;SDS011;27539;43.222;27.558;2022-12-20T06:15:32;6.03;;;1.60;;
41865;SDS011;27539;43.222;27.558;2022-12-20T06:17:57;1.60;;;1.43;;
41865;SDS011;27539;43.222;27.558;2022-12-20T06:20:23;4.93;;;2.70;;
41865;SDS011;27539;43.222;27.558;2022-12-20T06:22:48;4.53;;;1.77;;
41865;SDS011;27539;43.222;27.558;2022-12-20T06:25:14;0.87;;;0.87;;
41865;SDS011;27539;43.222;27.558;2022-12-20T06:27:41;5.20;;;3.65;;
41865;SDS011;27539;43.222;27.558;2022-12-20T06:30:07;4.28;;;3.58;;
41865;SDS011;27539;43.222;27.558;2022-12-20T06:32:33;9.82;;;1.85;;
41865;SDS011;27539;43.222;27.558;2022-12-20T06:34:59;2.93;;;2.67;;
41865;SDS011;27539;43.222;27.558;2022-12-20T06:37:24;1.30;;;1.27;;
41865;SDS011;27539;43.222;27.558;2022-12-20T06:39:50;0.93;;;0.93;;
41865;SDS011;27539;43.222;27.558;2022-12-20T06:42:15;10.20;;;2.40;;
41865;SDS011;27539;43.222;27.558;2022-12-20T06:44:41;1.93;;;1.30;;
41865;SDS011;27539;43.222;27.558;2022-12-20T06:47:06;1.27;;;1.17;;
41865;SDS011;27539;43.222;27.558;2022-12-20T06:49:32;2.77;;;1.40;;
41865;SDS011;27539;43.222;27.558;2022-12-20T06:51:57;3.30;;;1.73;;
41865;SDS011;27539;43.222;27.558;2022-12-20T06:54:23;2.27;;;1.87;;
41865;SDS011;27539;43.222;27.558;2022-12-20T06:56:48;3.10;;;1.83;;
41865;SDS011;27539;43.222;27.558;2022-12-20T06:59:13;6.07;;;2.73;;
41865;SDS011;27539;43.222;27.558;2022-12-20T07:01:39;1.40;;;1.30;;
41865;SDS011;27539;43.222;27.558;2022-12-20T07:04:04;1.33;;;1.33;;
41865;SDS011;27539;43.222;27.558;2022-12-20T07:06:30;4.40;;;2.23;;
41865;SDS011;27539;43.222;27.558;2022-12-20T07:08:56;3.10;;;2.33;;
41865;SDS011;27539;43.222;27.558;2022-12-20T07:11:21;3.10;;;1.70;;
41865;SDS011;27539;43.222;27.558;2022-12-20T07:13:47;2.63;;;1.83;;
41865;SDS011;27539;43.222;27.558;2022-12-20T07:16:14;2.38;;;1.60;;
41865;SDS011;27539;43.222;27.558;2022-12-20T07:18:39;2.27;;;2.00;;
41865;SDS011;27539;43.222;27.558;2022-12-20T07:21:05;1.90;;;1.37;;
41865;SDS011;27539;43.222;27.558;2022-12-20T07:23:31;0.97;;;0.97;;
41865;SDS011;27539;43.222;27.558;2022-12-20T07:25:57;6.20;;;3.30;;
41865;SDS011;27539;43.222;27.558;2022-12-20T07:28:25;3.97;;;2.15;;
41865;SDS011;27539;43.222;27.558;2022-12-20T07:30:51;1.95;;;1.35;;
41865;SDS011;27539;43.222;27.558;2022-12-20T07:33:17;1.60;;;1.50;;
41865;SDS011;27539;43.222;27.558;2022-12-20T07:35:42;2.63;;;1.67;;
41865;SDS011;27539;43.222;27.558;2022-12-20T07:38:09;1.70;;;1.23;;
41865;SDS011;27539;43.222;27.558;2022-12-20T07:40:38;1.23;;;1.23;;
41865;SDS011;27539;43.222;27.558;2022-12-20T07:43:05;0.93;;;0.70;;
41865;SDS011;27539;43.222;27.558;2022-12-20T07:45:30;6.27;;;2.30;;
41865;SDS011;27539;43.222;27.558;2022-12-20T07:47:55;1.43;;;1.33;;
41865;SDS011;27539;43.222;27.558;2022-12-20T07:50:22;2.53;;;2.15;;
41865;SDS011;27539;43.222;27.558;2022-12-20T07:52:48;4.93;;;2.15;;
41865;SDS011;27539;43.222;27.558;2022-12-20T07:55:14;1.42;;;1.35;;
41865;SDS011;27539;43.222;27.558;2022-12-20T07:57:46;7.47;;;1.60;;
41865;SDS011;27539;43.222;27.558;2022-12-20T08:00:15;1.40;;;1.30;;
41865;SDS011;27539;43.222;27.558;2022-12-20T08:02:54;2.75;;;2.58;;
41865;SDS011;27539;43.222;27.558;2022-12-20T08:05:25;1.27;;;0.85;;
41865;SDS011;27539;43.222;27.558;2022-12-20T08:07:51;1.27;;;1.23;;
41865;SDS011;27539;43.222;27.558;2022-12-20T08:10:18;1.65;;;1.55;;
41865;SDS011;27539;43.222;27.558;2022-12-20T08:12:44;3.37;;;0.97;;
41865;SDS011;27539;43.222;27.558;2022-12-20T08:15:11;4.03;;;1.85;;
41865;SDS011;27539;43.222;27.558;2022-12-20T08:17:37;1.43;;;1.33;;
41865;SDS011;27539;43.222;27.558;2022-12-20T08:20:03;3.93;;;1.73;;
41865;SDS011;27539;43.222;27.558;2022-12-20T08:22:31;1.85;;;1.77;;
41865;SDS011;27539;43.222;27.558;2022-12-20T08:24:56;4.40;;;2.63;;
41865;SDS011;27539;43.222;27.558;2022-12-20T08:27:22;3.40;;;2.07;;
41865;SDS011;27539;43.222;27.558;2022-12-20T08:29:47;2.03;;;0.97;;
41865;SDS011;27539;43.222;27.558;2022-12-20T08:32:14;3.00;;;2.78;;
41865;SDS011;27539;43.222;27.558;2022-12-20T08:34:40;6.38;;;2.83;;
41865;SDS011;27539;43.222;27.558;2022-12-20T08:37:05;1.83;;;1.73;;
41865;SDS011;27539;43.222;27.558;2022-12-20T08:39:31;2.83;;;2.10;;
41865;SDS011;27539;43.222;27.558;2022-12-20T08:41:56;3.30;;;2.00;;
41865;SDS011;27539;43.222;27.558;2022-12-20T08:44:22;0.67;;;0.67;;
41865;SDS011;27539;43.222;27.558;2022-12-20T08:46:47;1.60;;;1.50;;
41865;SDS011;27539;43.222;27.558;2022-12-20T08:49:13;3.03;;;2.57;;
41865;SDS011;27539;43.222;27.558;2022-12-20T08:51:38;4.43;;;1.37;;
41865;SDS011;27539;43.222;27.558;2022-12-20T08:54:03;3.10;;;2.80;;
41865;SDS011;27539;43.222;27.558;2022-12-20T08:56:29;2.20;;;1.70;;
41865;SDS011;27539;43.222;27.558;2022-12-20T08:58:54;3.03;;;2.40;;
41865;SDS011;27539;43.222;27.558;2022-12-20T09:01:20;10.03;;;2.87;;
41865;SDS011;27539;43.222;27.558;2022-12-20T09:03:47;0.68;;;0.68;;
41865;SDS011;27539;43.222;27.558;2022-12-20T09:06:16;4.72;;;3.22;;
41865;SDS011;27539;43.222;27.558;2022-12-20T09:08:44;1.77;;;1.45;;
41865;SDS011;27539;43.222;27.558;2022-12-20T09:13:41;0.70;;;0.70;;
41865;SDS011;27539;43.222;27.558;2022-12-20T09:16:08;6.72;;;1.83;;
41865;SDS011;27539;43.222;27.558;2022-12-20T09:18:34;1.15;;;1.15;;
41865;SDS011;27539;43.222;27.558;2022-12-20T09:21:00;1.60;;;1.50;;
41865;SDS011;27539;43.222;27.558;2022-12-20T09:23:28;2.50;;;1.30;;
41865;SDS011;27539;43.222;27.558;2022-12-20T09:25:54;4.75;;;1.77;;
41865;SDS011;27539;43.222;27.558;2022-12-20T09:28:20;3.00;;;2.05;;
41865;SDS011;27539;43.222;27.558;2022-12-20T09:30:46;1.52;;;1.45;;
41865;SDS011;27539;43.222;27.558;2022-12-20T09:33:11;2.93;;;1.27;;
41865;SDS011;27539;43.222;27.558;2022-12-20T09:35:46;3.60;;;2.80;;
41865;SDS011;27539;43.222;27.558;2022-12-20T09:38:12;2.53;;;1.85;;
41865;SDS011;27539;43.222;27.558;2022-12-20T09:40:37;3.00;;;1.50;;
41865;SDS011;27539;43.222;27.558;2022-12-20T09:43:11;1.77;;;1.30;;
41865;SDS011;27539;43.222;27.558;2022-12-20T09:45:38;3.47;;;1.98;;
41865;SDS011;27539;43.222;27.558;2022-12-20T09:48:05;1.53;;;1.43;;
41865;SDS011;27539;43.222;27.558;2022-12-20T09:59:02;2.78;;;2.22;;
41865;SDS011;27539;43.222;27.558;2022-12-20T10:01:38;3.95;;;1.55;;
41865;SDS011;27539;43.222;27.558;2022-12-20T10:04:16;13.90;;;2.38;;
41865;SDS011;27539;43.222;27.558;2022-12-20T10:12:19;2.10;;;1.77;;
41865;SDS011;27539;43.222;27.558;2022-12-20T10:14:52;1.53;;;1.20;;
41865;SDS011;27539;43.222;27.558;2022-12-20T10:25:48;3.35;;;1.73;;
41865;SDS011;27539;43.222;27.558;2022-12-20T10:28:16;3.45;;;2.42;;
41865;SDS011;27539;43.222;27.558;2022-12-20T10:30:44;4.93;;;2.80;;
41865;SDS011;27539;43.222;27.558;2022-12-20T10:33:15;1.40;;;1.13;;
41865;SDS011;27539;43.222;27.558;2022-12-20T10:35:44;0.93;;;0.93;;
41865;SDS011;27539;43.222;27.558;2022-12-20T10:38:10;2.90;;;2.30;;
41865;SDS011;27539;43.222;27.558;2022-12-20T10:40:39;3.10;;;2.33;;
41865;SDS011;27539;43.222;27.558;2022-12-20T10:43:13;2.10;;;1.80;;
41865;SDS011;27539;43.222;27.558;2022-12-20T10:45:41;4.45;;;2.22;;
41865;SDS011;27539;43.222;27.558;2022-12-20T10:51:17;1.95;;;1.80;;
41865;SDS011;27539;43.222;27.558;2022-12-20T10:56:24;3.78;;;2.13;;
41865;SDS011;27539;43.222;27.558;2022-12-20T10:58:53;1.25;;;1.13;;
41865;SDS011;27539;43.222;27.558;2022-12-20T11:01:51;2.08;;;1.98;;
41865;SDS011;27539;43.222;27.558;2022-12-20T11:06:57;2.10;;;1.83;;
41865;SDS011;27539;43.222;27.558;2022-12-20T11:14:27;3.17;;;2.50;;
41865;SDS011;27539;43.222;27.558;2022-12-20T11:22:33;5.22;;;1.40;;
41865;SDS011;27539;43.222;27.558;2022-12-20T11:36:17;2.83;;;1.80;;
41865;SDS011;27539;43.222;27.558;2022-12-20T11:38:54;5.75;;;2.35;;
41865;SDS011;27539;43.222;27.558;2022-12-20T11:41:46;7.88;;;1.70;;
41865;SDS011;27539;43.222;27.558;2022-12-20T11:45:03;1.92;;;1.83;;
41865;SDS011;27539;43.222;27.558;2022-12-20T11:47:30;4.30;;;1.35;;
41865;SDS011;27539;43.222;27.558;2022-12-20T11:50:18;6.30;;;3.15;;
41865;SDS011;27539;43.222;27.558;2022-12-20T11:52:57;5.10;;;1.30;;
41865;SDS011;27539;43.222;27.558;2022-12-20T11:55:30;2.38;;;1.35;;
41865;SDS011;27539;43.222;27.558;2022-12-20T12:00:43;4.13;;;2.55;;
41865;SDS011;27539;43.222;27.558;2022-12-20T12:06:02;5.13;;;1.88;;
41865;SDS011;27539;43.222;27.558;2022-12-20T12:11:17;6.35;;;1.58;;
41865;SDS011;27539;43.222;27.558;2022-12-20T12:14:04;3.78;;;1.40;;
41865;SDS011;27539;43.222;27.558;2022-12-20T12:16:34;6.25;;;1.55;;
41865;SDS011;27539;43.222;27.558;2022-12-20T12:19:07;1.98;;;1.15;;
41865;SDS011;27539;43.222;27.558;2022-12-20T12:24:37;3.47;;;1.50;;
41865;SDS011;27539;43.222;27.558;2022-12-20T12:27:14;2.75;;;1.55;;
41865;SDS011;27539;43.222;27.558;2022-12-20T12:29:49;2.03;;;1.83;;
41865;SDS011;27539;43.222;27.558;2022-12-20T12:32:18;1.85;;;1.52;;
41865;SDS011;27539;43.222;27.558;2022-12-20T12:48:24;2.22;;;1.83;;
41865;SDS011;27539;43.222;27.558;2022-12-20T12:50:57;3.55;;;1.83;;
41865;SDS011;27539;43.222;27.558;2022-12-20T12:53:36;1.35;;;1.23;;
41865;SDS011;27539;43.222;27.558;2022-12-20T12:59:39;3.90;;;1.50;;
41865;SDS011;27539;43.222;27.558;2022-12-20T13:11:52;0.95;;;0.88;;
41865;SDS011;27539;43.222;27.558;2022-12-20T13:16:53;1.10;;;0.75;;
41865;SDS011;27539;43.222;27.558;2022-12-20T13:19:40;2.78;;;1.55;;
41865;SDS011;27539;43.222;27.558;2022-12-20T13:22:24;1.60;;;1.50;;
41865;SDS011;27539;43.222;27.558;2022-12-20T13:24:54;0.82;;;0.82;;
41865;SDS011;27539;43.222;27.558;2022-12-20T13:27:28;0.47;;;0.47;;
41865;SDS011;27539;43.222;27.558;2022-12-20T13:38:00;0.25;;;0.25;;
41865;SDS011;27539;43.222;27.558;2022-12-20T13:40:35;2.47;;;1.67;;
41865;SDS011;27539;43.222;27.558;2022-12-20T13:43:27;1.85;;;1.65;;
41865;SDS011;27539;43.222;27.558;2022-12-20T13:51:02;1.88;;;1.77;;
41865;SDS011;27539;43.222;27.558;2022-12-20T13:53:28;2.33;;;0.97;;
41865;SDS011;27539;43.222;27.558;2022-12-20T13:55:58;1.00;;;1.00;;
41865;SDS011;27539;43.222;27.558;2022-12-20T13:58:53;1.17;;;1.13;;
41865;SDS011;27539;43.222;27.558;2022-12-20T14:01:20;1.08;;;0.65;;
41865;SDS011;27539;43.222;27.558;2022-12-20T14:03:47;2.67;;;1.77;;
41865;SDS011;27539;43.222;27.558;2022-12-20T14:06:14;1.55;;;1.27;;
41865;SDS011;27539;43.222;27.558;2022-12-20T14:08:44;1.02;;;0.95;;
41865;SDS011;27539;43.222;27.558;2022-12-20T14:11:22;1.67;;;1.52;;
41865;SDS011;27539;43.222;27.558;2022-12-20T14:13:56;2.17;;;1.98;;
41865;SDS011;27539;43.222;27.558;2022-12-20T14:16:25;0.80;;;0.80;;
41865;SDS011;27539;43.222;27.558;2022-12-20T14:21:29;7.63;;;2.80;;
41865;SDS011;27539;43.222;27.558;2022-12-20T14:23:56;12.25;;;4.25;;
41865;SDS011;27539;43.222;27.558;2022-12-20T14:26:26;21.55;;;5.15;;
41865;SDS011;27539;43.222;27.558;2022-12-20T14:28:54;2.75;;;2.55;;
41865;SDS011;27539;43.222;27.558;2022-12-20T14:34:02;4.20;;;3.33;;
41865;SDS011;27539;43.222;27.558;2022-12-20T14:36:30;17.15;;;6.78;;
41865;SDS011;27539;43.222;27.558;2022-12-20T14:38:56;8.18;;;3.92;;
41865;SDS011;27539;43.222;27.558;2022-12-20T14:44:03;5.05;;;4.50;;
41865;SDS011;27539;43.222;27.558;2022-12-20T14:46:31;10.90;;;6.32;;
41865;SDS011;27539;43.222;27.558;2022-12-20T14:51:40;17.92;;;7.38;;
41865;SDS011;27539;43.222;27.558;2022-12-20T14:54:05;11.20;;;4.47;;
41865;SDS011;27539;43.222;27.558;2022-12-20T14:56:35;11.98;;;5.88;;
41865;SDS011;27539;43.222;27.558;2022-12-20T14:59:02;10.57;;;6.60;;
41865;SDS011;27539;43.222;27.558;2022-12-20T15:01:35;17.70;;;7.15;;
41865;SDS011;27539;43.222;27.558;2022-12-20T15:04:00;18.30;;;5.80;;
41865;SDS011;27539;43.222;27.558;2022-12-20T15:06:44;4.90;;;3.97;;
41865;SDS011;27539;43.222;27.558;2022-12-20T15:09:12;10.07;;;4.15;;
41865;SDS011;27539;43.222;27.558;2022-12-20T15:11:38;33.67;;;9.13;;
41865;SDS011;27539;43.222;27.558;2022-12-20T15:14:52;95.55;;;31.40;;
41865;SDS011;27539;43.222;27.558;2022-12-20T15:17:04;32.15;;;15.13;;
41865;SDS011;27539;43.222;27.558;2022-12-20T15:19:34;26.15;;;8.65;;
41865;SDS011;27539;43.222;27.558;2022-12-20T15:22:00;20.60;;;14.00;;
41865;SDS011;27539;43.222;27.558;2022-12-20T15:24:26;13.13;;;7.47;;
41865;SDS011;27539;43.222;27.558;2022-12-20T15:29:19;5.60;;;4.18;;
41865;SDS011;27539;43.222;27.558;2022-12-20T15:31:48;2.38;;;2.22;;
41865;SDS011;27539;43.222;27.558;2022-12-20T15:36:51;2.17;;;1.58;;
41865;SDS011;27539;43.222;27.558;2022-12-20T15:39:17;3.50;;;2.93;;
41865;SDS011;27539;43.222;27.558;2022-12-20T15:41:44;8.80;;;3.97;;
41865;SDS011;27539;43.222;27.558;2022-12-20T15:44:16;1.67;;;1.58;;
41865;SDS011;27539;43.222;27.558;2022-12-20T15:46:44;3.38;;;2.92;;
41865;SDS011;27539;43.222;27.558;2022-12-20T15:49:13;1.93;;;1.83;;
41865;SDS011;27539;43.222;27.558;2022-12-20T15:51:47;0.45;;;0.45;;
41865;SDS011;27539;43.222;27.558;2022-12-20T15:54:35;1.35;;;1.25;;
41865;SDS011;27539;43.222;27.558;2022-12-20T15:57:05;4.13;;;2.55;;
41865;SDS011;27539;43.222;27.558;2022-12-20T15:59:35;10.82;;;4.30;;
41865;SDS011;27539;43.222;27.558;2022-12-20T16:02:00;9.90;;;5.10;;
41865;SDS011;27539;43.222;27.558;2022-12-20T16:04:26;7.80;;;3.67;;
41865;SDS011;27539;43.222;27.558;2022-12-20T16:06:53;7.85;;;4.47;;
41865;SDS011;27539;43.222;27.558;2022-12-20T16:09:18;6.63;;;4.87;;
41865;SDS011;27539;43.222;27.558;2022-12-20T16:11:44;3.37;;;2.73;;
41865;SDS011;27539;43.222;27.558;2022-12-20T16:14:17;2.93;;;2.60;;
41865;SDS011;27539;43.222;27.558;2022-12-20T16:16:45;8.23;;;3.50;;
41865;SDS011;27539;43.222;27.558;2022-12-20T16:19:12;4.65;;;2.90;;
41865;SDS011;27539;43.222;27.558;2022-12-20T16:21:45;3.07;;;2.87;;
41865;SDS011;27539;43.222;27.558;2022-12-20T16:24:13;5.40;;;3.53;;
41865;SDS011;27539;43.222;27.558;2022-12-20T16:26:39;5.75;;;3.70;;
41865;SDS011;27539;43.222;27.558;2022-12-20T16:29:05;3.37;;;2.77;;
41865;SDS011;27539;43.222;27.558;2022-12-20T16:31:33;8.15;;;5.53;;
41865;SDS011;27539;43.222;27.558;2022-12-20T16:34:03;9.38;;;7.50;;
41865;SDS011;27539;43.222;27.558;2022-12-20T16:36:31;19.65;;;9.95;;
41865;SDS011;27539;43.222;27.558;2022-12-20T16:38:57;18.73;;;9.70;;
41865;SDS011;27539;43.222;27.558;2022-12-20T16:41:25;14.23;;;5.03;;
41865;SDS011;27539;43.222;27.558;2022-12-20T16:43:52;14.40;;;6.70;;
41865;SDS011;27539;43.222;27.558;2022-12-20T16:46:20;9.40;;;7.20;;
41865;SDS011;27539;43.222;27.558;2022-12-20T16:48:46;14.43;;;8.40;;
41865;SDS011;27539;43.222;27.558;2022-12-20T16:53:53;19.20;;;8.60;;
41865;SDS011;27539;43.222;27.558;2022-12-20T16:56:21;21.95;;;8.00;;
41865;SDS011;27539;43.222;27.558;2022-12-20T16:58:47;3.08;;;2.58;;
41865;SDS011;27539;43.222;27.558;2022-12-20T17:01:18;11.13;;;4.63;;
41865;SDS011;27539;43.222;27.558;2022-12-20T17:03:48;19.85;;;8.98;;
41865;SDS011;27539;43.222;27.558;2022-12-20T17:06:15;11.95;;;4.25;;
41865;SDS011;27539;43.222;27.558;2022-12-20T17:08:42;10.50;;;7.88;;
41865;SDS011;27539;43.222;27.558;2022-12-20T17:13:37;8.60;;;7.03;;
41865;SDS011;27539;43.222;27.558;2022-12-20T17:16:02;12.70;;;5.57;;
41865;SDS011;27539;43.222;27.558;2022-12-20T17:18:28;6.67;;;4.73;;
41865;SDS011;27539;43.222;27.558;2022-12-20T17:20:53;24.83;;;5.47;;